createdAt,value
2022-08-17T00:00:43.625Z,15.724537
2022-08-17T00:05:16.047Z,15.828704
2022-08-17T00:10:15.977Z,15.965278
2022-08-17T00:15:16.027Z,16.143519
2022-08-17T00:20:16.150Z,16.402778
2022-08-17T00:25:16.155Z,16.540000
2022-08-17T00:30:16.033Z,16.585648
2022-08-17T00:35:16.157Z,16.645833
2022-08-17T00:40:16.253Z,16.666667
2022-08-17T00:45:15.969Z,16.668981
2022-08-17T00:50:16.260Z,16.715278
2022-08-17T00:55:15.915Z,16.733796
2022-08-17T01:00:16.323Z,16.743056
2022-08-17T01:05:16.213Z,16.768519
2022-08-17T01:11:00.038Z,16.768519
2022-08-17T01:15:16.073Z,16.713333
2022-08-17T01:20:16.187Z,16.708333
2022-08-17T01:25:16.311Z,16.678241
2022-08-17T01:30:58.419Z,16.657407
2022-08-17T01:35:15.980Z,16.643519
2022-08-17T01:40:16.039Z,16.668889
2022-08-17T01:45:15.987Z,16.680556
2022-08-17T01:50:15.979Z,16.636574
2022-08-17T01:55:16.002Z,16.518519
2022-08-17T02:00:16.055Z,16.340278
2022-08-17T02:05:15.946Z,16.173611
2022-08-17T02:10:20.022Z,16.002222
2022-08-17T02:15:16.129Z,15.787037
2022-08-17T02:20:16.005Z,15.629630
2022-08-17T02:25:16.054Z,15.546296
2022-08-17T02:30:59.779Z,15.543981
2022-08-17T02:35:15.972Z,15.553241
2022-08-17T02:40:16.099Z,15.518519
2022-08-17T02:45:16.191Z,15.555556
2022-08-17T02:50:16.042Z,15.525463
2022-08-17T02:55:16.158Z,15.456019
2022-08-17T03:00:16.194Z,15.388889
2022-08-17T03:05:16.430Z,15.298611
2022-08-17T03:10:15.997Z,15.175556
2022-08-17T03:15:16.077Z,15.067130
2022-08-17T03:20:15.961Z,14.981481
2022-08-17T03:25:16.014Z,14.893333
2022-08-17T03:30:16.006Z,14.824074
2022-08-17T03:35:15.980Z,14.743056
2022-08-17T03:40:16.018Z,14.759259
2022-08-17T03:45:16.167Z,14.657778
2022-08-17T03:50:15.977Z,14.483796
2022-08-17T03:55:16.051Z,14.284722
2022-08-17T04:00:15.990Z,14.168981
2022-08-17T04:05:15.985Z,14.108796
2022-08-17T04:10:15.956Z,14.129630
2022-08-17T04:15:15.957Z,14.078704
2022-08-17T04:20:16.197Z,14.138889
2022-08-17T04:25:16.067Z,14.164352
2022-08-17T04:30:15.922Z,14.180556
2022-08-17T04:35:16.124Z,14.203704
2022-08-17T04:40:16.121Z,14.280093
2022-08-17T04:45:16.127Z,14.300926
2022-08-17T04:50:16.040Z,14.504630
2022-08-17T04:55:15.924Z,14.777778
2022-08-17T05:00:16.202Z,14.958333
2022-08-17T05:05:15.993Z,15.166667
2022-08-17T05:10:15.956Z,15.444444
2022-08-17T05:15:15.934Z,15.763889
2022-08-17T05:20:16.195Z,16.145833
2022-08-17T05:25:16.046Z,16.587963
2022-08-17T05:30:16.096Z,17.053241
2022-08-17T05:35:15.939Z,17.393519
2022-08-17T05:40:15.955Z,17.791667
2022-08-17T05:45:16.010Z,18.062500
2022-08-17T05:50:18.092Z,18.432870
2022-08-17T05:55:16.116Z,18.808889
2022-08-17T06:00:16.021Z,19.113426
2022-08-17T06:05:16.237Z,19.574074
2022-08-17T06:10:15.960Z,20.039352
2022-08-17T06:15:16.231Z,20.250000
2022-08-17T06:20:16.179Z,20.493056
2022-08-17T06:25:16.003Z,20.696759
2022-08-17T06:30:15.908Z,20.937500
2022-08-17T06:35:15.924Z,21.240741
2022-08-17T06:40:16.004Z,21.673333
2022-08-17T06:45:16.252Z,22.247685
2022-08-17T09:40:16.257Z,28.557870
2022-08-17T09:45:15.872Z,28.944444
2022-08-17T09:50:16.304Z,29.497685
2022-08-17T09:55:15.893Z,29.402778
2022-08-17T10:00:16.116Z,29.921296
2022-08-17T10:05:16.010Z,29.842593
2022-08-17T10:10:15.948Z,30.104167
2022-08-17T10:15:16.016Z,29.986111
2022-08-17T10:20:16.138Z,30.011574
2022-08-17T10:25:23.711Z,30.212963
2022-08-17T10:30:16.245Z,29.870370
2022-08-17T10:35:16.144Z,29.897778
2022-08-17T10:40:16.406Z,30.442222
2022-08-17T10:45:15.953Z,31.087963
2022-08-17T10:50:16.015Z,31.293981
2022-08-17T10:55:15.955Z,30.909722
2022-08-17T11:00:15.951Z,30.837963
2022-08-17T11:05:16.005Z,31.074074
2022-08-17T11:10:15.847Z,30.973333
2022-08-17T11:15:15.936Z,31.050926
2022-08-17T11:20:16.030Z,30.942130
2022-08-17T11:25:15.909Z,31.365741
2022-08-17T11:30:15.960Z,31.615741
2022-08-17T11:35:15.969Z,32.051111
2022-08-17T11:40:16.116Z,31.692130
2022-08-17T11:45:19.430Z,31.550926
2022-08-17T11:50:16.500Z,31.331019
2022-08-17T11:55:34.496Z,30.750000
2022-08-17T12:00:15.926Z,30.124444
2022-08-17T12:05:16.153Z,31.039352
2022-08-17T12:10:15.869Z,31.039352
2022-08-17T12:15:15.887Z,31.543981
2022-08-17T12:20:15.872Z,31.502315
2022-08-17T12:25:16.148Z,31.449074
2022-08-17T12:30:15.852Z,31.624444
2022-08-17T12:35:16.142Z,32.041667
2022-08-17T12:40:16.277Z,31.986111
2022-08-17T12:45:15.971Z,32.046296
2022-08-17T12:50:29.473Z,32.280093
2022-08-17T12:55:15.868Z,31.895833
2022-08-17T13:00:16.350Z,31.044444
2022-08-17T13:05:15.913Z,31.002315
2022-08-17T13:10:16.091Z,30.914352
2022-08-17T13:15:15.956Z,31.453704
2022-08-17T13:20:15.964Z,32.418981
2022-08-17T13:25:15.917Z,32.460648
2022-08-17T13:30:15.898Z,32.634259
2022-08-17T13:35:29.738Z,32.750000
2022-08-17T13:40:15.983Z,32.548611
2022-08-17T13:45:34.985Z,32.601852
2022-08-17T13:50:15.802Z,33.131944
2022-08-17T13:55:16.076Z,32.824074
2022-08-17T14:00:15.847Z,32.821759
2022-08-17T14:05:15.885Z,32.888889
2022-08-17T14:10:15.905Z,32.471111
2022-08-17T14:15:15.815Z,32.513889
2022-08-17T14:20:15.918Z,32.370370
2022-08-17T14:25:15.812Z,32.101852
2022-08-17T14:30:15.852Z,32.171296
2022-08-17T14:35:15.816Z,32.050926
2022-08-17T14:40:15.909Z,32.231481
2022-08-17T14:45:29.939Z,32.131944
2022-08-17T14:50:15.821Z,32.143519
2022-08-17T14:55:16.029Z,32.182870
2022-08-17T15:00:16.024Z,31.270833
2022-08-17T15:05:16.311Z,30.310185
2022-08-17T15:10:15.971Z,29.557870
2022-08-17T15:15:16.079Z,29.129630
2022-08-17T15:20:15.991Z,28.912037
2022-08-17T15:25:16.042Z,29.307870
2022-08-17T15:30:15.838Z,29.706019
2022-08-17T15:35:15.812Z,30.150463
2022-08-17T15:40:16.153Z,29.315556
2022-08-17T15:45:15.823Z,28.871111
2022-08-17T15:50:15.847Z,28.886574
2022-08-17T15:55:17.184Z,29.046296
2022-08-17T16:00:15.807Z,29.037037
2022-08-17T16:05:15.884Z,28.726852
2022-08-17T16:10:19.042Z,28.620370
2022-08-17T16:15:15.805Z,29.099537
2022-08-17T16:20:20.541Z,28.965278
2022-08-17T16:25:15.881Z,28.940000
2022-08-17T16:30:17.618Z,29.226852
2022-08-17T16:35:15.791Z,28.682870
2022-08-17T16:40:16.233Z,28.125000
2022-08-17T16:45:16.095Z,27.553241
2022-08-17T16:50:16.053Z,27.256944
2022-08-17T16:55:15.783Z,27.250000
2022-08-17T17:00:15.862Z,27.048611
2022-08-17T17:05:15.887Z,26.722222
2022-08-17T17:10:15.909Z,26.196759
2022-08-17T17:15:21.994Z,25.881944
2022-08-17T17:20:15.887Z,25.488426
2022-08-17T17:25:15.936Z,25.118056
2022-08-17T17:30:15.776Z,24.789352
2022-08-17T17:35:15.727Z,24.534722
2022-08-17T17:40:15.873Z,24.372685
2022-08-17T17:45:15.781Z,24.335648
2022-08-17T17:50:15.783Z,24.145833
2022-08-17T17:55:16.229Z,23.864444
2022-08-17T18:00:15.818Z,23.712963
2022-08-17T18:05:16.397Z,23.199074
2022-08-17T18:10:29.885Z,22.671296
2022-08-17T18:15:15.935Z,22.421296
2022-08-17T18:20:16.056Z,22.199074
2022-08-17T18:25:15.796Z,21.983796
2022-08-17T18:30:15.904Z,22.006944
2022-08-17T18:35:15.777Z,21.731481
2022-08-17T18:40:15.888Z,21.444444
2022-08-17T18:45:15.881Z,21.182870
2022-08-17T18:50:15.783Z,20.965278
2022-08-17T18:55:18.252Z,20.689815
2022-08-17T19:00:18.251Z,20.486667
2022-08-17T19:05:18.545Z,20.300926
2022-08-17T19:10:18.276Z,20.178241
2022-08-17T19:15:18.352Z,20.067130
2022-08-17T19:20:18.626Z,20.000000
2022-08-17T19:25:18.407Z,19.968889
2022-08-17T19:30:18.325Z,19.842593
2022-08-17T19:35:18.281Z,19.682870
2022-08-17T19:40:41.911Z,19.280093
2022-08-17T19:45:18.632Z,18.828704
2022-08-17T19:50:18.456Z,18.627315
2022-08-17T19:55:20.802Z,18.462963
2022-08-17T20:00:18.408Z,18.231481
2022-08-17T20:05:18.737Z,18.115741
2022-08-17T20:10:18.442Z,17.953704
2022-08-17T20:15:18.387Z,17.800926
2022-08-17T20:20:19.771Z,17.710648
2022-08-17T20:25:18.275Z,17.599537
2022-08-17T20:30:18.435Z,17.449074
2022-08-17T20:35:18.363Z,17.370370
2022-08-17T20:40:18.447Z,17.289352
2022-08-17T20:45:18.268Z,17.196759
2022-08-17T20:50:18.260Z,17.171296
2022-08-17T20:55:18.336Z,17.062500
2022-08-17T21:00:18.261Z,16.983796
2022-08-17T21:05:18.476Z,16.916667
2022-08-17T21:10:18.318Z,16.854167
2022-08-17T21:15:18.278Z,16.759259
2022-08-17T21:20:18.216Z,16.597222
2022-08-17T21:25:18.266Z,16.476852
2022-08-17T21:30:18.271Z,16.523148
2022-08-17T21:35:18.565Z,16.548611
2022-08-17T21:40:18.528Z,16.506944
2022-08-17T21:45:18.323Z,16.328704
2022-08-17T21:50:18.478Z,16.268889
2022-08-17T21:55:18.346Z,16.289352
2022-08-17T22:00:15.756Z,16.215278
2022-08-17T22:05:15.967Z,16.094203
2022-08-17T22:10:15.851Z,15.972222
2022-08-17T22:15:15.870Z,15.904444
2022-08-17T22:20:15.875Z,15.872685
2022-08-17T22:25:15.882Z,15.847222
2022-08-17T22:30:15.794Z,15.793981
2022-08-17T22:35:15.873Z,15.775463
2022-08-17T22:40:15.959Z,15.708333
2022-08-17T22:45:15.706Z,15.699074
2022-08-17T22:50:15.899Z,15.627315
2022-08-17T22:55:15.903Z,15.481481
2022-08-17T23:00:15.821Z,15.391204
2022-08-17T23:05:15.992Z,15.368056
2022-08-17T23:10:15.866Z,15.342593
2022-08-17T23:15:15.897Z,15.418981
2022-08-17T23:20:15.811Z,15.456019
2022-08-17T23:25:15.871Z,15.370370
2022-08-17T23:30:15.997Z,15.384259
2022-08-17T23:35:15.890Z,15.328704
2022-08-17T23:40:16.040Z,15.268519
2022-08-17T23:45:15.808Z,15.291667
2022-08-17T23:50:15.833Z,15.210648
2022-08-17T23:55:15.775Z,15.078704
